createdAt,value
2022-11-09T00:00:53.514Z,8.88
2022-11-09T00:03:20.786Z,8.90
2022-11-09T00:05:58.178Z,7.45
2022-11-09T00:08:25.490Z,8.74
2022-11-09T00:10:52.996Z,8.86
2022-11-09T00:13:20.358Z,8.91
2022-11-09T00:15:47.617Z,8.38
2022-11-09T00:18:14.660Z,8.83
2022-11-09T00:20:47.605Z,8.62
2022-11-09T00:23:17.382Z,8.07
2022-11-09T00:25:44.946Z,8.82
2022-11-09T00:28:21.591Z,7.39
2022-11-09T00:30:52.132Z,8.79
2022-11-09T00:33:19.247Z,7.71
2022-11-09T00:35:46.268Z,8.85
2022-11-09T00:38:13.381Z,7.20
2022-11-09T00:40:40.517Z,6.89
2022-11-09T00:43:07.584Z,8.40
2022-11-09T00:45:34.796Z,8.68
2022-11-09T00:48:02.339Z,7.25
2022-11-09T00:50:29.707Z,8.18
2022-11-09T00:52:56.447Z,8.68
2022-11-09T00:55:24.041Z,8.54
2022-11-09T00:57:52.390Z,8.62
2022-11-09T01:00:23.713Z,8.10
2022-11-09T01:02:51.089Z,8.52
2022-11-09T01:05:19.101Z,8.25
2022-11-09T01:07:45.834Z,8.55
2022-11-09T01:10:12.551Z,8.46
2022-11-09T01:12:39.187Z,8.20
2022-11-09T01:15:06.297Z,8.53
2022-11-09T01:17:34.107Z,7.79
2022-11-09T01:20:00.950Z,7.69
2022-11-09T01:22:27.562Z,7.59
2022-11-09T01:24:54.798Z,8.22
2022-11-09T01:27:23.882Z,8.29
2022-11-09T01:29:50.589Z,8.33
2022-11-09T01:32:17.205Z,8.35
2022-11-09T01:34:43.865Z,7.18
2022-11-09T01:37:10.496Z,8.42
2022-11-09T01:39:37.055Z,8.26
2022-11-09T01:42:03.886Z,7.32
2022-11-09T01:44:30.987Z,8.20
2022-11-09T01:47:04.913Z,7.92
2022-11-09T01:49:47.832Z,7.39
2022-11-09T01:52:39.413Z,7.07
2022-11-09T01:55:13.645Z,8.20
2022-11-09T01:58:11.628Z,8.23
2022-11-09T02:00:43.320Z,7.48
2022-11-09T02:03:15.538Z,6.73
2022-11-09T02:05:43.024Z,8.06
2022-11-09T02:08:13.900Z,5.53
2022-11-09T02:11:04.562Z,7.58
2022-11-09T02:13:32.996Z,7.89
2022-11-09T02:16:05.899Z,7.03
2022-11-09T02:18:34.044Z,7.28
2022-11-09T02:21:01.817Z,6.81
2022-11-09T02:23:30.089Z,6.81
2022-11-09T02:26:06.285Z,7.64
2022-11-09T02:28:35.212Z,7.59
2022-11-09T02:31:04.679Z,7.17
2022-11-09T02:33:54.450Z,7.51
2022-11-09T02:36:23.619Z,7.50
2022-11-09T02:38:52.906Z,7.49
2022-11-09T02:41:21.633Z,7.45
2022-11-09T02:43:50.034Z,7.39
2022-11-09T02:46:28.654Z,7.07
2022-11-09T02:48:55.557Z,7.27
2022-11-09T02:51:22.353Z,6.81
2022-11-09T02:53:49.523Z,7.23
2022-11-09T02:56:16.092Z,7.20
2022-11-09T02:58:42.751Z,7.13
2022-11-09T03:01:09.516Z,7.08
2022-11-09T03:03:36.643Z,7.08
2022-11-09T03:06:03.791Z,6.46
2022-11-09T03:08:30.393Z,7.03
2022-11-09T03:10:59.754Z,5.74
2022-11-09T03:13:26.648Z,6.96
2022-11-09T03:15:53.245Z,6.92
2022-11-09T03:18:20.006Z,5.94
2022-11-09T03:20:46.898Z,4.82
2022-11-09T03:23:16.368Z,6.53
2022-11-09T03:25:43.395Z,5.72
2022-11-09T03:28:10.350Z,5.88
2022-11-09T03:30:38.649Z,6.06
2022-11-09T03:33:10.105Z,6.24
2022-11-09T03:35:37.668Z,5.60
2022-11-09T03:38:04.707Z,6.75
2022-11-09T03:40:31.570Z,6.73
2022-11-09T03:42:58.735Z,6.73
2022-11-09T03:45:27.834Z,6.71
2022-11-09T03:48:00.110Z,6.71
2022-11-09T03:50:28.522Z,6.73
2022-11-09T03:52:55.305Z,5.87
2022-11-09T03:55:21.921Z,5.51
2022-11-09T03:57:48.631Z,6.44
2022-11-09T04:00:18.099Z,6.37
2022-11-09T04:02:44.913Z,6.74
2022-11-09T04:05:11.640Z,5.93
2022-11-09T04:07:38.960Z,6.17
2022-11-09T04:10:06.578Z,5.88
2022-11-09T04:12:33.281Z,7.04
2022-11-09T04:14:59.883Z,7.07
2022-11-09T04:17:26.487Z,6.52
2022-11-09T04:19:53.162Z,6.94
2022-11-09T04:22:19.795Z,6.89
2022-11-09T04:24:46.409Z,6.63
2022-11-09T04:27:13.069Z,6.82
2022-11-09T04:29:39.715Z,5.71
2022-11-09T04:32:06.356Z,6.75
2022-11-09T04:34:33.049Z,5.70
2022-11-09T04:37:00.943Z,6.68
2022-11-09T04:39:27.587Z,6.63
2022-11-09T04:41:54.219Z,6.34
2022-11-09T04:44:20.899Z,5.84
2022-11-09T04:46:47.509Z,6.35
2022-11-09T04:49:14.262Z,4.79
2022-11-09T04:51:40.885Z,6.66
2022-11-09T04:54:07.603Z,6.63
2022-11-09T04:56:34.306Z,6.29
2022-11-09T04:59:00.940Z,5.45
2022-11-09T05:01:27.667Z,5.64
2022-11-09T05:03:54.479Z,6.49
2022-11-09T05:06:33.322Z,6.49
2022-11-09T05:09:07.684Z,6.18
2022-11-09T05:11:35.611Z,6.46
2022-11-09T05:14:03.046Z,6.46
2022-11-09T05:16:29.954Z,5.71
2022-11-09T05:18:56.699Z,6.17
2022-11-09T05:21:23.403Z,5.49
2022-11-09T05:23:59.153Z,5.24
2022-11-09T05:26:33.986Z,4.56
2022-11-09T05:29:02.618Z,6.34
2022-11-09T05:31:30.084Z,6.35
2022-11-09T05:33:57.224Z,6.45
2022-11-09T05:36:24.087Z,5.08
2022-11-09T05:38:50.956Z,5.85
2022-11-09T05:41:17.846Z,6.23
2022-11-09T05:43:45.471Z,4.62
2022-11-09T05:46:14.102Z,5.26
2022-11-09T05:48:41.793Z,6.24
2022-11-09T05:51:10.230Z,6.20
2022-11-09T05:53:40.059Z,5.51
2022-11-09T05:56:11.538Z,6.23
2022-11-09T05:58:39.030Z,6.24
2022-11-09T06:01:07.743Z,4.18
2022-11-09T06:03:34.972Z,6.37
2022-11-09T06:06:08.378Z,6.07
2022-11-09T06:08:35.942Z,6.35
2022-11-09T06:11:08.684Z,6.42
2022-11-09T06:13:35.666Z,4.81
2022-11-09T06:16:04.512Z,6.56
2022-11-09T06:18:32.835Z,4.51
2022-11-09T06:21:02.171Z,6.29
2022-11-09T06:23:30.204Z,6.41
2022-11-09T06:25:58.752Z,5.71
2022-11-09T06:28:26.118Z,6.25
2022-11-09T06:30:53.291Z,4.48
2022-11-09T06:33:20.235Z,6.02
2022-11-09T06:35:50.835Z,4.89
2022-11-09T06:38:20.217Z,6.08
2022-11-09T06:40:46.955Z,5.84
2022-11-09T06:43:13.829Z,7.04
2022-11-09T06:45:40.398Z,6.75
2022-11-09T06:48:07.107Z,7.00
2022-11-09T06:50:34.509Z,6.21
2022-11-09T06:53:04.116Z,5.94
2022-11-09T06:55:32.283Z,6.94
2022-11-09T06:57:59.740Z,6.56
2022-11-09T07:00:28.169Z,5.35
2022-11-09T07:02:55.874Z,5.50
2022-11-09T07:05:22.974Z,5.98
2022-11-09T07:07:49.942Z,6.67
2022-11-09T07:10:17.082Z,4.87
2022-11-09T07:12:43.874Z,6.62
2022-11-09T07:15:11.800Z,6.56
2022-11-09T07:17:39.978Z,6.53
2022-11-09T07:20:09.243Z,6.59
2022-11-09T07:22:39.493Z,6.36
2022-11-09T07:25:07.480Z,6.70
2022-11-09T07:27:34.286Z,6.62
2022-11-09T07:30:00.922Z,6.43
2022-11-09T07:32:46.947Z,6.36
2022-11-09T07:35:14.245Z,6.37
2022-11-09T07:37:41.028Z,6.66
2022-11-09T07:40:09.241Z,5.69
2022-11-09T07:42:36.012Z,6.56
2022-11-09T07:45:02.856Z,6.26
2022-11-09T07:47:29.490Z,6.81
2022-11-09T07:49:56.167Z,6.78
2022-11-09T07:52:22.996Z,7.13
2022-11-09T07:54:52.356Z,7.32
2022-11-09T07:57:19.223Z,6.18
2022-11-09T07:59:45.830Z,6.85
2022-11-09T08:02:13.947Z,7.40
2022-11-09T08:04:41.127Z,7.62
2022-11-09T08:07:08.185Z,7.74
2022-11-09T08:09:34.987Z,7.70
2022-11-09T08:12:01.628Z,7.51
2022-11-09T08:14:28.255Z,7.29
2022-11-09T08:16:55.374Z,7.76
2022-11-09T08:19:22.008Z,7.42
2022-11-09T08:21:48.767Z,8.13
2022-11-09T08:24:15.514Z,7.73
2022-11-09T08:26:42.322Z,7.60
2022-11-09T08:29:09.078Z,6.60
2022-11-09T08:31:35.825Z,6.00
2022-11-09T08:34:02.532Z,7.73
2022-11-09T08:36:29.876Z,6.89
2022-11-09T08:38:59.191Z,8.38
2022-11-09T08:41:26.597Z,7.83
2022-11-09T08:43:53.656Z,8.61
2022-11-09T08:46:20.369Z,8.71
2022-11-09T08:48:47.419Z,8.54
2022-11-09T08:51:14.253Z,7.55
2022-11-09T08:53:40.873Z,8.83
2022-11-09T08:56:08.208Z,9.23
2022-11-09T08:58:35.659Z,9.26
2022-11-09T09:01:08.180Z,8.61
2022-11-09T09:03:38.076Z,9.26
2022-11-09T09:06:06.386Z,8.33
2022-11-09T09:08:33.450Z,9.30
2022-11-09T09:11:04.972Z,9.84
2022-11-09T09:13:39.075Z,7.43
2022-11-09T09:16:14.951Z,10.08
2022-11-09T09:18:42.597Z,10.27
2022-11-09T09:21:10.695Z,10.34
2022-11-09T09:23:37.438Z,10.51
2022-11-09T09:26:04.357Z,10.64
2022-11-09T09:28:31.335Z,10.61
2022-11-09T09:30:59.751Z,9.64
2022-11-09T09:33:27.273Z,10.92
2022-11-09T09:35:57.402Z,10.94
2022-11-09T09:38:25.189Z,11.10
2022-11-09T09:40:59.299Z,11.29
2022-11-09T09:43:31.129Z,11.46
2022-11-09T09:46:04.405Z,10.23
2022-11-09T09:48:48.173Z,11.64
2022-11-09T09:51:25.474Z,11.49
2022-11-09T09:54:03.727Z,11.35
2022-11-09T09:56:38.787Z,10.79
2022-11-09T09:59:29.694Z,11.23
2022-11-09T10:01:58.506Z,11.49
2022-11-09T10:04:36.113Z,10.56
2022-11-09T10:07:23.555Z,11.54
2022-11-09T10:10:22.337Z,10.71
2022-11-09T10:13:10.502Z,11.58
2022-11-09T10:16:06.109Z,11.13
2022-11-09T10:18:35.499Z,11.98
2022-11-09T10:21:18.015Z,12.16
2022-11-09T10:24:05.867Z,10.11
2022-11-09T10:26:41.176Z,11.72
2022-11-09T10:29:25.309Z,11.50
2022-11-09T10:31:57.495Z,11.93
2022-11-09T10:34:38.001Z,12.69
2022-11-09T10:37:14.957Z,11.79
2022-11-09T10:39:51.593Z,12.59
2022-11-09T10:42:37.947Z,12.05
2022-11-09T10:45:41.465Z,12.74
2022-11-09T10:48:40.430Z,12.79
2022-11-09T10:51:38.707Z,12.82
2022-11-09T10:54:28.036Z,8.42
2022-11-09T10:57:15.852Z,12.33
2022-11-09T11:00:02.544Z,11.22
2022-11-09T11:02:50.126Z,11.23
2022-11-09T11:05:35.206Z,12.43
2022-11-09T11:08:28.928Z,12.64
2022-11-09T11:11:34.853Z,12.51
2022-11-09T11:14:29.014Z,12.35
2022-11-09T11:17:36.154Z,11.81
2022-11-09T11:20:24.010Z,11.98
2022-11-09T11:23:23.791Z,11.90
2022-11-09T11:26:31.834Z,11.75
2022-11-09T11:29:22.552Z,11.78
2022-11-09T11:32:11.902Z,11.69
2022-11-09T11:35:00.729Z,10.82
2022-11-09T11:37:46.208Z,11.57
2022-11-09T11:40:46.334Z,11.61
2022-11-09T11:43:50.183Z,11.71
2022-11-09T11:47:01.060Z,11.31
2022-11-09T11:50:09.210Z,11.74
2022-11-09T11:53:23.324Z,9.89
2022-11-09T11:56:38.486Z,11.66
2022-11-09T12:00:01.366Z,11.75
2022-11-09T12:03:14.995Z,11.80
2022-11-09T12:06:11.746Z,11.65
2022-11-09T12:08:59.543Z,11.49
2022-11-09T12:12:07.422Z,11.38
2022-11-09T12:15:22.096Z,11.26
2022-11-09T12:18:31.968Z,11.14
2022-11-09T12:21:33.546Z,11.12
2022-11-09T12:24:59.319Z,11.13
2022-11-09T12:28:12.331Z,11.14
2022-11-09T12:31:27.556Z,11.08
2022-11-09T12:34:28.949Z,10.84
2022-11-09T12:37:20.272Z,11.02
2022-11-09T12:40:29.158Z,10.99
2022-11-09T12:43:24.504Z,10.44
2022-11-09T12:46:11.267Z,11.13
2022-11-09T12:49:01.966Z,10.82
2022-11-09T12:51:47.902Z,11.04
2022-11-09T12:54:35.427Z,8.40
2022-11-09T12:57:26.567Z,11.06
2022-11-09T13:00:34.907Z,10.12
2022-11-09T13:03:24.276Z,10.83
2022-11-09T13:06:17.196Z,11.02
2022-11-09T13:09:23.109Z,9.73
2022-11-09T13:12:33.673Z,10.79
2022-11-09T13:15:25.161Z,9.85
2022-11-09T13:18:35.631Z,10.64
2022-11-09T13:21:21.539Z,10.49
2022-11-09T13:24:31.616Z,10.45
2022-11-09T13:27:40.509Z,10.11
2022-11-09T13:30:25.657Z,10.33
2022-11-09T13:33:20.890Z,9.72
2022-11-09T13:36:06.588Z,10.20
2022-11-09T13:39:31.724Z,10.08
2022-11-09T13:42:27.691Z,10.00
2022-11-09T13:45:42.231Z,9.99
2022-11-09T13:48:40.827Z,9.97
2022-11-09T13:51:34.903Z,9.91
2022-11-09T13:54:34.533Z,9.85
2022-11-09T13:57:22.223Z,9.15
2022-11-09T14:00:15.078Z,9.74
2022-11-09T14:03:03.411Z,9.68
2022-11-09T14:05:57.836Z,8.32
2022-11-09T14:08:43.889Z,9.55
2022-11-09T14:11:49.130Z,9.51
2022-11-09T14:15:05.300Z,9.45
2022-11-09T14:17:56.215Z,9.42
2022-11-09T14:20:55.124Z,8.41
2022-11-09T14:23:43.789Z,9.12
2022-11-09T14:26:28.927Z,9.38
2022-11-09T14:29:22.660Z,9.08
2022-11-09T14:32:31.850Z,9.23
2022-11-09T14:35:32.078Z,8.87
2022-11-09T14:38:25.076Z,8.99
2022-11-09T14:41:30.027Z,8.44
2022-11-09T14:44:40.154Z,9.04
2022-11-09T14:47:31.199Z,7.40
2022-11-09T14:50:35.592Z,7.71
2022-11-09T14:53:26.303Z,8.42
2022-11-09T14:56:15.481Z,8.60
2022-11-09T14:59:04.343Z,8.82
2022-11-09T15:02:06.100Z,8.83
2022-11-09T15:04:54.252Z,8.74
2022-11-09T15:07:39.138Z,8.71
2022-11-09T15:10:29.508Z,8.73
2022-11-09T15:13:15.031Z,8.74
2022-11-09T15:16:00.408Z,7.74
2022-11-09T15:18:47.282Z,7.95
2022-11-09T15:21:40.299Z,8.64
2022-11-09T15:24:28.629Z,8.46
2022-11-09T15:27:32.701Z,7.74
2022-11-09T15:30:36.247Z,8.67
2022-11-09T15:33:35.259Z,8.15
2022-11-09T15:36:23.846Z,8.68
2022-11-09T15:39:18.159Z,8.63
2022-11-09T15:42:03.137Z,8.61
2022-11-09T15:44:56.812Z,8.59
2022-11-09T15:47:53.160Z,8.57
2022-11-09T15:50:38.905Z,8.54
2022-11-09T15:53:24.424Z,7.94
2022-11-09T15:56:22.114Z,8.50
2022-11-09T15:59:11.733Z,8.54
2022-11-09T16:01:57.296Z,8.53
2022-11-09T16:04:43.732Z,8.47
2022-11-09T16:07:29.145Z,8.47
2022-11-09T16:10:15.581Z,7.94
2022-11-09T16:13:01.048Z,8.43
2022-11-09T16:15:46.293Z,8.39
2022-11-09T16:18:31.814Z,8.38
2022-11-09T16:21:18.093Z,7.91
2022-11-09T16:24:03.591Z,8.06
2022-11-09T16:26:48.606Z,7.80
2022-11-09T16:29:36.804Z,7.89
2022-11-09T16:32:23.162Z,8.18
2022-11-09T16:35:25.979Z,8.20
2022-11-09T16:38:13.156Z,8.21
2022-11-09T16:41:01.141Z,7.78
2022-11-09T16:43:48.899Z,8.00
2022-11-09T16:46:34.708Z,8.19
2022-11-09T16:49:20.152Z,8.06
2022-11-09T16:52:06.030Z,8.28
2022-11-09T16:54:51.290Z,7.78
2022-11-09T16:57:37.421Z,8.28
2022-11-09T17:00:33.754Z,8.04
2022-11-09T17:03:30.682Z,8.21
2022-11-09T17:06:16.163Z,8.16
2022-11-09T17:09:01.912Z,8.14
2022-11-09T17:11:47.363Z,6.70
2022-11-09T17:14:32.543Z,7.11
2022-11-09T17:17:22.448Z,7.76
2022-11-09T17:20:09.265Z,8.00
2022-11-09T17:22:54.835Z,7.66
2022-11-09T17:25:39.981Z,7.03
2022-11-09T17:28:26.857Z,7.42
2022-11-09T17:31:18.011Z,6.90
2022-11-09T17:34:03.479Z,7.92
2022-11-09T17:37:03.796Z,7.44
2022-11-09T17:39:49.819Z,7.08
2022-11-09T17:42:35.045Z,7.44
2022-11-09T17:45:20.187Z,5.74
2022-11-09T17:48:05.408Z,7.65
2022-11-09T17:50:50.919Z,7.27
2022-11-09T17:53:36.626Z,7.64
2022-11-09T17:56:22.124Z,7.95
2022-11-09T17:59:07.131Z,7.97
2022-11-09T18:01:54.712Z,7.27
2022-11-09T18:04:41.209Z,5.99
2022-11-09T18:07:26.624Z,7.56
2022-11-09T18:10:14.958Z,6.99
2022-11-09T18:13:01.307Z,6.09
2022-11-09T18:15:46.819Z,7.75
2022-11-09T18:18:32.804Z,7.99
2022-11-09T18:21:23.130Z,7.05
2022-11-09T18:24:17.582Z,7.97
2022-11-09T18:27:03.396Z,7.78
2022-11-09T18:29:48.644Z,8.04
2022-11-09T18:32:34.441Z,8.05
2022-11-09T18:35:20.933Z,8.07
2022-11-09T18:38:10.058Z,7.84
2022-11-09T18:41:04.605Z,8.12
2022-11-09T18:43:53.891Z,8.10
2022-11-09T18:46:39.478Z,8.18
2022-11-09T18:49:24.814Z,8.21
2022-11-09T18:52:12.166Z,7.99
2022-11-09T18:54:58.923Z,8.16
2022-11-09T18:57:48.871Z,8.12
2022-11-09T19:00:34.808Z,8.09
2022-11-09T19:03:59.373Z,8.02
2022-11-09T19:06:47.712Z,8.03
2022-11-09T19:09:39.091Z,8.05
2022-11-09T19:12:25.091Z,8.05
2022-11-09T19:15:10.657Z,7.89
2022-11-09T19:17:57.108Z,7.30
2022-11-09T19:20:42.591Z,7.57
2022-11-09T19:23:33.833Z,8.02
2022-11-09T19:26:21.477Z,8.05
2022-11-09T19:29:10.048Z,7.13
2022-11-09T19:31:57.284Z,8.06
2022-11-09T19:35:08.352Z,7.63
2022-11-09T19:38:06.476Z,8.03
2022-11-09T19:40:55.571Z,7.97
2022-11-09T19:43:41.259Z,6.55
2022-11-09T19:46:30.510Z,7.42
2022-11-09T19:49:16.486Z,7.88
2022-11-09T19:52:02.056Z,7.86
2022-11-09T19:54:47.987Z,7.85
2022-11-09T19:57:33.152Z,7.82
2022-11-09T20:00:21.531Z,7.82
2022-11-09T20:03:06.888Z,7.83
2022-11-09T20:05:56.577Z,7.83
2022-11-09T20:08:42.905Z,6.20
2022-11-09T20:11:47.407Z,7.85
2022-11-09T20:14:32.841Z,6.78
2022-11-09T20:17:18.081Z,6.99
2022-11-09T20:20:03.330Z,7.22
2022-11-09T20:22:49.394Z,7.74
2022-11-09T20:25:34.493Z,6.36
2022-11-09T20:28:20.245Z,7.69
2022-11-09T20:31:15.286Z,7.66
2022-11-09T20:34:02.337Z,6.25
2022-11-09T20:36:47.695Z,7.31
2022-11-09T20:39:33.150Z,7.57
2022-11-09T20:42:18.198Z,7.30
2022-11-09T20:45:04.641Z,7.02
2022-11-09T20:48:07.595Z,7.63
2022-11-09T20:50:55.713Z,6.80
2022-11-09T20:53:40.744Z,6.52
2022-11-09T20:56:26.043Z,7.50
2022-11-09T20:59:11.715Z,6.12
2022-11-09T21:01:57.092Z,6.73
2022-11-09T21:04:42.896Z,7.44
2022-11-09T21:07:31.530Z,7.76
2022-11-09T21:10:17.435Z,7.73
2022-11-09T21:13:02.755Z,7.68
2022-11-09T21:15:48.633Z,7.70
2022-11-09T21:18:34.373Z,7.70
2022-11-09T21:21:23.457Z,6.99
2022-11-09T21:24:28.158Z,7.65
2022-11-09T21:27:48.145Z,7.64
2022-11-09T21:30:41.625Z,7.63
2022-11-09T21:33:27.799Z,7.32
2022-11-09T21:36:14.477Z,7.57
2022-11-09T21:39:01.930Z,6.25
2022-11-09T21:41:47.983Z,6.43
2022-11-09T21:44:51.009Z,7.59
2022-11-09T21:47:36.498Z,7.63
2022-11-09T21:50:21.838Z,7.21
2022-11-09T21:53:07.124Z,7.70
2022-11-09T21:55:52.813Z,7.50
2022-11-09T21:58:37.824Z,5.95
2022-11-09T22:01:23.955Z,6.56
2022-11-09T22:04:10.598Z,7.32
2022-11-09T22:06:59.848Z,7.21
2022-11-09T22:10:08.920Z,7.19
2022-11-09T22:13:12.704Z,7.82
2022-11-09T22:16:09.298Z,7.80
2022-11-09T22:19:13.110Z,7.77
2022-11-09T22:21:58.358Z,7.40
2022-11-09T22:24:43.798Z,6.98
2022-11-09T22:27:32.395Z,7.78
2022-11-09T22:30:17.777Z,7.81
2022-11-09T22:33:02.992Z,7.55
2022-11-09T22:35:58.222Z,7.57
2022-11-09T22:38:44.743Z,6.81
2022-11-09T22:41:30.071Z,6.93
2022-11-09T22:44:15.580Z,7.84
2022-11-09T22:47:01.251Z,7.09
2022-11-09T22:49:46.462Z,7.76
2022-11-09T22:52:32.163Z,7.51
2022-11-09T22:55:18.498Z,7.72
2022-11-09T22:58:03.506Z,7.49
2022-11-09T23:00:49.562Z,7.72
2022-11-09T23:03:35.481Z,7.43
2022-11-09T23:06:22.803Z,7.22
2022-11-09T23:09:07.990Z,7.68
2022-11-09T23:11:53.025Z,7.37
2022-11-09T23:14:56.526Z,6.73
2022-11-09T23:18:00.284Z,6.63
2022-11-09T23:20:45.755Z,6.65
2022-11-09T23:23:30.873Z,6.81
2022-11-09T23:26:16.575Z,7.69
2022-11-09T23:29:01.791Z,6.63
2022-11-09T23:31:47.041Z,7.16
2022-11-09T23:34:32.436Z,7.01
2022-11-09T23:37:18.127Z,7.48
2022-11-09T23:40:04.919Z,6.29
2022-11-09T23:42:50.236Z,7.46
2022-11-09T23:45:36.874Z,7.03
2022-11-09T23:48:22.518Z,7.48
2022-11-09T23:51:08.857Z,6.43
2022-11-09T23:53:53.869Z,7.48
2022-11-09T23:56:39.242Z,7.23
2022-11-09T23:59:24.381Z,6.23
